sensor_id;sensor_type;location;lat;lon;timestamp;temperature;humidity
38265;DHT22;24062;47.480;8.768;2022-12-18T00:01:30;-0.10;74.90
38265;DHT22;24062;47.480;8.768;2022-12-18T00:05:22;-0.10;74.70
38265;DHT22;24062;47.480;8.768;2022-12-18T00:09:14;-0.20;74.00
38265;DHT22;24062;47.480;8.768;2022-12-18T00:13:14;-0.30;74.40
38265;DHT22;24062;47.480;8.768;2022-12-18T00:17:07;-0.40;74.30
38265;DHT22;24062;47.480;8.768;2022-12-18T00:20:58;-0.50;74.00
38265;DHT22;24062;47.480;8.768;2022-12-18T00:24:49;-0.50;74.60
38265;DHT22;24062;47.480;8.768;2022-12-18T00:28:50;-0.50;74.30
38265;DHT22;24062;47.480;8.768;2022-12-18T00:32:43;-0.80;73.90
38265;DHT22;24062;47.480;8.768;2022-12-18T00:36:34;-0.80;74.90
38265;DHT22;24062;47.480;8.768;2022-12-18T00:40:25;-0.80;74.70
38265;DHT22;24062;47.480;8.768;2022-12-18T00:44:27;-0.80;74.80
38265;DHT22;24062;47.480;8.768;2022-12-18T00:48:20;-0.70;74.90
38265;DHT22;24062;47.480;8.768;2022-12-18T00:52:11;-0.80;74.40
38265;DHT22;24062;47.480;8.768;2022-12-18T00:56:03;-0.80;75.00
38265;DHT22;24062;47.480;8.768;2022-12-18T01:00:03;-0.70;75.50
38265;DHT22;24062;47.480;8.768;2022-12-18T01:03:56;-0.70;74.90
38265;DHT22;24062;47.480;8.768;2022-12-18T01:07:47;-0.60;75.10
38265;DHT22;24062;47.480;8.768;2022-12-18T01:11:39;-0.60;75.10
38265;DHT22;24062;47.480;8.768;2022-12-18T01:15:39;-0.70;74.50
38265;DHT22;24062;47.480;8.768;2022-12-18T01:19:32;-0.80;74.80
38265;DHT22;24062;47.480;8.768;2022-12-18T01:23:23;-0.80;74.90
38265;DHT22;24062;47.480;8.768;2022-12-18T01:27:15;-0.90;74.90
38265;DHT22;24062;47.480;8.768;2022-12-18T01:31:16;-0.90;74.90
38265;DHT22;24062;47.480;8.768;2022-12-18T01:35:09;-0.80;75.40
38265;DHT22;24062;47.480;8.768;2022-12-18T01:39:01;-0.90;74.90
38265;DHT22;24062;47.480;8.768;2022-12-18T01:42:53;-0.90;75.40
38265;DHT22;24062;47.480;8.768;2022-12-18T01:46:53;-1.00;75.10
38265;DHT22;24062;47.480;8.768;2022-12-18T01:50:46;-1.00;75.10
38265;DHT22;24062;47.480;8.768;2022-12-18T01:54:39;-1.10;75.40
38265;DHT22;24062;47.480;8.768;2022-12-18T01:58:32;-1.00;76.10
38265;DHT22;24062;47.480;8.768;2022-12-18T02:02:36;-1.00;76.10
38265;DHT22;24062;47.480;8.768;2022-12-18T02:06:31;-1.00;75.70
38265;DHT22;24062;47.480;8.768;2022-12-18T02:10:25;-1.00;76.30
38265;DHT22;24062;47.480;8.768;2022-12-18T02:14:19;-0.90;76.30
38265;DHT22;24062;47.480;8.768;2022-12-18T02:18:21;-0.90;76.30
38265;DHT22;24062;47.480;8.768;2022-12-18T02:22:20;-0.90;76.30
38265;DHT22;24062;47.480;8.768;2022-12-18T02:26:19;-0.80;76.20
38265;DHT22;24062;47.480;8.768;2022-12-18T02:30:11;-0.80;76.10
38265;DHT22;24062;47.480;8.768;2022-12-18T02:34:10;-0.90;76.00
38265;DHT22;24062;47.480;8.768;2022-12-18T02:38:04;-0.90;76.60
38265;DHT22;24062;47.480;8.768;2022-12-18T02:41:57;-0.80;76.30
38265;DHT22;24062;47.480;8.768;2022-12-18T02:45:49;-0.80;76.20
38265;DHT22;24062;47.480;8.768;2022-12-18T02:49:51;-0.80;76.50
38265;DHT22;24062;47.480;8.768;2022-12-18T02:53:48;-0.70;76.70
38265;DHT22;24062;47.480;8.768;2022-12-18T02:57:44;-0.70;76.00
38265;DHT22;24062;47.480;8.768;2022-12-18T03:01:38;-0.80;75.70
38265;DHT22;24062;47.480;8.768;2022-12-18T03:05:41;-1.00;75.70
38265;DHT22;24062;47.480;8.768;2022-12-18T03:09:36;-1.00;76.40
38265;DHT22;24062;47.480;8.768;2022-12-18T03:13:31;-1.00;76.40
38265;DHT22;24062;47.480;8.768;2022-12-18T03:17:25;-1.10;76.60
38265;DHT22;24062;47.480;8.768;2022-12-18T03:21:28;-1.00;76.90
38265;DHT22;24062;47.480;8.768;2022-12-18T03:25:21;-0.90;77.10
38265;DHT22;24062;47.480;8.768;2022-12-18T03:29:16;-0.90;76.60
38265;DHT22;24062;47.480;8.768;2022-12-18T03:33:09;-0.80;76.70
38265;DHT22;24062;47.480;8.768;2022-12-18T03:37:09;-0.90;76.60
38265;DHT22;24062;47.480;8.768;2022-12-18T03:41:03;-0.90;76.80
38265;DHT22;24062;47.480;8.768;2022-12-18T03:44:57;-0.90;76.80
38265;DHT22;24062;47.480;8.768;2022-12-18T03:48:51;-0.90;76.70
38265;DHT22;24062;47.480;8.768;2022-12-18T03:52:52;-1.00;76.70
38265;DHT22;24062;47.480;8.768;2022-12-18T03:56:47;-1.00;76.30
38265;DHT22;24062;47.480;8.768;2022-12-18T04:00:40;-1.20;76.50
38265;DHT22;24062;47.480;8.768;2022-12-18T04:04:32;-1.20;77.00
38265;DHT22;24062;47.480;8.768;2022-12-18T04:08:31;-1.20;77.10
38265;DHT22;24062;47.480;8.768;2022-12-18T04:12:26;-1.10;77.60
38265;DHT22;24062;47.480;8.768;2022-12-18T04:16:19;-1.00;77.20
38265;DHT22;24062;47.480;8.768;2022-12-18T04:20:10;-0.90;77.70
38265;DHT22;24062;47.480;8.768;2022-12-18T04:24:09;-0.90;77.10
38265;DHT22;24062;47.480;8.768;2022-12-18T04:28:02;-0.90;77.30
38265;DHT22;24062;47.480;8.768;2022-12-18T04:31:54;-0.80;76.60
38265;DHT22;24062;47.480;8.768;2022-12-18T04:35:46;-0.90;76.70
38265;DHT22;24062;47.480;8.768;2022-12-18T04:39:46;-1.00;76.50
38265;DHT22;24062;47.480;8.768;2022-12-18T04:43:39;-1.00;77.10
38265;DHT22;24062;47.480;8.768;2022-12-18T04:47:31;-1.00;77.20
38265;DHT22;24062;47.480;8.768;2022-12-18T04:51:23;-1.00;77.10
38265;DHT22;24062;47.480;8.768;2022-12-18T04:55:21;-1.00;76.90
38265;DHT22;24062;47.480;8.768;2022-12-18T04:59:14;-1.10;76.30
38265;DHT22;24062;47.480;8.768;2022-12-18T05:03:07;-1.20;76.80
38265;DHT22;24062;47.480;8.768;2022-12-18T05:06:58;-1.10;77.00
38265;DHT22;24062;47.480;8.768;2022-12-18T05:11:00;-1.00;77.30
38265;DHT22;24062;47.480;8.768;2022-12-18T05:14:53;-1.00;76.60
38265;DHT22;24062;47.480;8.768;2022-12-18T05:18:46;-0.90;77.20
38265;DHT22;24062;47.480;8.768;2022-12-18T05:22:37;-0.90;77.70
38265;DHT22;24062;47.480;8.768;2022-12-18T05:26:36;-0.90;77.50
38265;DHT22;24062;47.480;8.768;2022-12-18T05:30:29;-0.80;77.20
38265;DHT22;24062;47.480;8.768;2022-12-18T05:34:21;-0.80;76.90
38265;DHT22;24062;47.480;8.768;2022-12-18T05:38:13;-0.90;77.00
38265;DHT22;24062;47.480;8.768;2022-12-18T05:42:11;-1.00;76.50
38265;DHT22;24062;47.480;8.768;2022-12-18T05:46:05;-0.90;77.00
38265;DHT22;24062;47.480;8.768;2022-12-18T05:49:58;-1.00;76.70
38265;DHT22;24062;47.480;8.768;2022-12-18T05:53:49;-1.00;77.40
38265;DHT22;24062;47.480;8.768;2022-12-18T05:57:49;-0.90;77.80
38265;DHT22;24062;47.480;8.768;2022-12-18T06:01:42;-0.90;77.10
38265;DHT22;24062;47.480;8.768;2022-12-18T06:05:35;-0.80;77.40
38265;DHT22;24062;47.480;8.768;2022-12-18T06:09:28;-0.80;77.10
38265;DHT22;24062;47.480;8.768;2022-12-18T06:13:27;-0.90;76.50
38265;DHT22;24062;47.480;8.768;2022-12-18T06:17:20;-1.00;76.80
38265;DHT22;24062;47.480;8.768;2022-12-18T06:21:13;-0.90;76.90
38265;DHT22;24062;47.480;8.768;2022-12-18T06:25:04;-0.90;77.80
38265;DHT22;24062;47.480;8.768;2022-12-18T06:29:03;-1.00;76.70
38265;DHT22;24062;47.480;8.768;2022-12-18T06:32:56;-1.10;76.90
38265;DHT22;24062;47.480;8.768;2022-12-18T06:36:49;-1.00;77.20
38265;DHT22;24062;47.480;8.768;2022-12-18T06:40:40;-1.00;77.20
38265;DHT22;24062;47.480;8.768;2022-12-18T06:44:39;-0.90;77.30
38265;DHT22;24062;47.480;8.768;2022-12-18T06:48:32;-0.90;76.80
38265;DHT22;24062;47.480;8.768;2022-12-18T06:52:24;-1.00;76.90
38265;DHT22;24062;47.480;8.768;2022-12-18T06:56:16;-0.80;77.90
38265;DHT22;24062;47.480;8.768;2022-12-18T07:00:15;-0.80;77.10
38265;DHT22;24062;47.480;8.768;2022-12-18T07:04:08;-0.90;76.60
38265;DHT22;24062;47.480;8.768;2022-12-18T07:08:00;-1.00;77.40
38265;DHT22;24062;47.480;8.768;2022-12-18T07:11:51;-0.90;77.40
38265;DHT22;24062;47.480;8.768;2022-12-18T07:15:52;-0.90;77.20
38265;DHT22;24062;47.480;8.768;2022-12-18T07:19:45;-1.00;77.10
38265;DHT22;24062;47.480;8.768;2022-12-18T07:23:37;-1.00;77.70
38265;DHT22;24062;47.480;8.768;2022-12-18T07:27:29;-0.90;77.30
38265;DHT22;24062;47.480;8.768;2022-12-18T07:31:27;-1.00;77.20
38265;DHT22;24062;47.480;8.768;2022-12-18T07:35:20;-1.00;77.60
38265;DHT22;24062;47.480;8.768;2022-12-18T07:39:13;-0.90;77.80
38265;DHT22;24062;47.480;8.768;2022-12-18T07:43:04;-0.80;77.70
38265;DHT22;24062;47.480;8.768;2022-12-18T07:47:03;-0.80;77.70
38265;DHT22;24062;47.480;8.768;2022-12-18T07:50:57;-0.70;78.10
38265;DHT22;24062;47.480;8.768;2022-12-18T07:54:50;-0.70;77.70
38265;DHT22;24062;47.480;8.768;2022-12-18T07:58:41;-0.50;78.40
38265;DHT22;24062;47.480;8.768;2022-12-18T08:02:41;-0.30;78.40
38265;DHT22;24062;47.480;8.768;2022-12-18T08:06:34;-0.20;77.90
38265;DHT22;24062;47.480;8.768;2022-12-18T08:10:27;-0.20;77.90
38265;DHT22;24062;47.480;8.768;2022-12-18T08:14:18;-0.10;77.20
38265;DHT22;24062;47.480;8.768;2022-12-18T08:18:17;-0.20;77.10
38265;DHT22;24062;47.480;8.768;2022-12-18T08:22:09;-0.20;77.40
38265;DHT22;24062;47.480;8.768;2022-12-18T08:26:02;-0.30;76.70
38265;DHT22;24062;47.480;8.768;2022-12-18T08:29:53;-0.20;77.60
38265;DHT22;24062;47.480;8.768;2022-12-18T08:33:54;0.00;78.00
38265;DHT22;24062;47.480;8.768;2022-12-18T08:37:47;0.00;76.90
38265;DHT22;24062;47.480;8.768;2022-12-18T08:41:39;0.00;77.20
38265;DHT22;24062;47.480;8.768;2022-12-18T08:45:32;0.10;77.90
38265;DHT22;24062;47.480;8.768;2022-12-18T08:49:32;0.20;77.20
38265;DHT22;24062;47.480;8.768;2022-12-18T08:53:25;0.30;77.20
38265;DHT22;24062;47.480;8.768;2022-12-18T08:57:17;0.30;76.80
38265;DHT22;24062;47.480;8.768;2022-12-18T09:01:10;0.40;77.40
38265;DHT22;24062;47.480;8.768;2022-12-18T09:05:10;0.60;77.40
38265;DHT22;24062;47.480;8.768;2022-12-18T09:09:03;0.60;76.90
38265;DHT22;24062;47.480;8.768;2022-12-18T09:12:56;0.70;76.30
38265;DHT22;24062;47.480;8.768;2022-12-18T09:16:47;0.60;76.40
38265;DHT22;24062;47.480;8.768;2022-12-18T09:20:46;0.70;75.80
38265;DHT22;24062;47.480;8.768;2022-12-18T09:24:39;0.80;75.10
38265;DHT22;24062;47.480;8.768;2022-12-18T09:28:32;0.80;75.90
38265;DHT22;24062;47.480;8.768;2022-12-18T09:32:23;1.00;76.70
38265;DHT22;24062;47.480;8.768;2022-12-18T09:36:22;1.10;75.40
38265;DHT22;24062;47.480;8.768;2022-12-18T09:40:15;1.10;75.40
38265;DHT22;24062;47.480;8.768;2022-12-18T09:44:12;1.20;75.20
38265;DHT22;24062;47.480;8.768;2022-12-18T09:48:05;1.30;75.50
38265;DHT22;24062;47.480;8.768;2022-12-18T09:52:08;1.40;75.20
38265;DHT22;24062;47.480;8.768;2022-12-18T09:56:01;1.50;74.90
38265;DHT22;24062;47.480;8.768;2022-12-18T09:59:56;1.60;74.00
38265;DHT22;24062;47.480;8.768;2022-12-18T10:03:49;1.50;73.60
38265;DHT22;24062;47.480;8.768;2022-12-18T10:07:50;1.50;73.60
38265;DHT22;24062;47.480;8.768;2022-12-18T10:11:47;1.40;72.40
38265;DHT22;24062;47.480;8.768;2022-12-18T10:15:43;1.50;72.80
38265;DHT22;24062;47.480;8.768;2022-12-18T10:19:39;1.40;72.60
38265;DHT22;24062;47.480;8.768;2022-12-18T10:23:41;1.40;73.40
38265;DHT22;24062;47.480;8.768;2022-12-18T10:27:37;1.60;73.20
38265;DHT22;24062;47.480;8.768;2022-12-18T10:31:30;1.70;73.20
38265;DHT22;24062;47.480;8.768;2022-12-18T10:35:22;1.70;73.00
38265;DHT22;24062;47.480;8.768;2022-12-18T10:39:22;1.60;70.50
38265;DHT22;24062;47.480;8.768;2022-12-18T10:43:16;1.40;72.00
38265;DHT22;24062;47.480;8.768;2022-12-18T10:47:13;1.60;73.10
38265;DHT22;24062;47.480;8.768;2022-12-18T10:51:05;1.60;72.80
38265;DHT22;24062;47.480;8.768;2022-12-18T10:55:05;1.80;72.90
38265;DHT22;24062;47.480;8.768;2022-12-18T10:58:59;1.70;69.20
38265;DHT22;24062;47.480;8.768;2022-12-18T11:02:52;1.40;70.30
38265;DHT22;24062;47.480;8.768;2022-12-18T11:06:52;1.30;69.40
38265;DHT22;24062;47.480;8.768;2022-12-18T11:10:52;1.10;69.00
38265;DHT22;24062;47.480;8.768;2022-12-18T11:14:46;1.20;72.20
38265;DHT22;24062;47.480;8.768;2022-12-18T11:18:40;1.70;72.90
38265;DHT22;24062;47.480;8.768;2022-12-18T11:22:32;1.80;71.80
38265;DHT22;24062;47.480;8.768;2022-12-18T11:26:33;2.10;72.80
38265;DHT22;24062;47.480;8.768;2022-12-18T11:30:28;2.30;72.20
38265;DHT22;24062;47.480;8.768;2022-12-18T11:34:22;2.10;68.90
38265;DHT22;24062;47.480;8.768;2022-12-18T11:38:18;2.10;71.80
38265;DHT22;24062;47.480;8.768;2022-12-18T11:42:21;2.20;70.80
38265;DHT22;24062;47.480;8.768;2022-12-18T11:46:17;2.20;71.20
38265;DHT22;24062;47.480;8.768;2022-12-18T11:50:12;2.60;72.30
38265;DHT22;24062;47.480;8.768;2022-12-18T11:54:07;2.80;72.10
38265;DHT22;24062;47.480;8.768;2022-12-18T11:58:11;3.10;71.20
38265;DHT22;24062;47.480;8.768;2022-12-18T12:02:12;2.80;68.00
38265;DHT22;24062;47.480;8.768;2022-12-18T12:06:09;2.50;68.60
38265;DHT22;24062;47.480;8.768;2022-12-18T12:10:07;2.10;66.80
38265;DHT22;24062;47.480;8.768;2022-12-18T12:14:17;2.20;70.70
38265;DHT22;24062;47.480;8.768;2022-12-18T12:18:17;2.30;68.90
38265;DHT22;24062;47.480;8.768;2022-12-18T12:22:13;2.10;67.90
38265;DHT22;24062;47.480;8.768;2022-12-18T12:26:10;2.10;69.70
38265;DHT22;24062;47.480;8.768;2022-12-18T12:30:13;2.40;70.20
38265;DHT22;24062;47.480;8.768;2022-12-18T12:34:09;2.50;69.20
38265;DHT22;24062;47.480;8.768;2022-12-18T12:38:06;2.40;68.60
38265;DHT22;24062;47.480;8.768;2022-12-18T12:41:59;2.50;70.00
38265;DHT22;24062;47.480;8.768;2022-12-18T12:46:16;2.50;68.60
38265;DHT22;24062;47.480;8.768;2022-12-18T12:50:12;2.40;68.70
38265;DHT22;24062;47.480;8.768;2022-12-18T12:54:06;2.20;68.00
38265;DHT22;24062;47.480;8.768;2022-12-18T12:58:04;2.00;68.10
38265;DHT22;24062;47.480;8.768;2022-12-18T13:03:22;1.90;68.40
38265;DHT22;24062;47.480;8.768;2022-12-18T13:07:18;2.10;68.80
38265;DHT22;24062;47.480;8.768;2022-12-18T13:11:12;2.10;68.70
38265;DHT22;24062;47.480;8.768;2022-12-18T13:15:37;2.10;68.30
38265;DHT22;24062;47.480;8.768;2022-12-18T13:19:36;1.90;67.10
38265;DHT22;24062;47.480;8.768;2022-12-18T13:23:32;1.80;67.30
38265;DHT22;24062;47.480;8.768;2022-12-18T13:35:53;1.60;67.50
38265;DHT22;24062;47.480;8.768;2022-12-18T13:39:46;1.50;66.80
38265;DHT22;24062;47.480;8.768;2022-12-18T13:43:39;1.40;66.80
38265;DHT22;24062;47.480;8.768;2022-12-18T13:47:32;1.30;66.40
38265;DHT22;24062;47.480;8.768;2022-12-18T13:51:34;1.00;67.10
38265;DHT22;24062;47.480;8.768;2022-12-18T13:55:27;1.20;68.20
38265;DHT22;24062;47.480;8.768;2022-12-18T13:59:20;1.50;68.00
38265;DHT22;24062;47.480;8.768;2022-12-18T14:03:16;1.50;67.60
38265;DHT22;24062;47.480;8.768;2022-12-18T14:07:18;1.40;67.40
38265;DHT22;24062;47.480;8.768;2022-12-18T14:11:17;1.20;66.50
38265;DHT22;24062;47.480;8.768;2022-12-18T14:15:18;0.80;66.20
38265;DHT22;24062;47.480;8.768;2022-12-18T14:19:12;0.70;67.50
38265;DHT22;24062;47.480;8.768;2022-12-18T14:23:26;0.80;68.60
38265;DHT22;24062;47.480;8.768;2022-12-18T14:27:20;1.10;68.40
38265;DHT22;24062;47.480;8.768;2022-12-18T14:31:16;1.20;68.70
38265;DHT22;24062;47.480;8.768;2022-12-18T14:35:12;1.60;69.50
38265;DHT22;24062;47.480;8.768;2022-12-18T14:39:14;1.80;68.60
38265;DHT22;24062;47.480;8.768;2022-12-18T14:43:09;1.60;67.70
38265;DHT22;24062;47.480;8.768;2022-12-18T14:47:01;1.60;68.00
38265;DHT22;24062;47.480;8.768;2022-12-18T14:50:56;1.40;67.00
38265;DHT22;24062;47.480;8.768;2022-12-18T14:54:57;1.20;67.50
38265;DHT22;24062;47.480;8.768;2022-12-18T14:58:51;1.00;67.60
38265;DHT22;24062;47.480;8.768;2022-12-18T15:02:42;1.10;68.30
38265;DHT22;24062;47.480;8.768;2022-12-18T15:06:34;1.20;68.70
38265;DHT22;24062;47.480;8.768;2022-12-18T15:10:45;1.20;68.00
38265;DHT22;24062;47.480;8.768;2022-12-18T15:14:39;1.00;67.90
38265;DHT22;24062;47.480;8.768;2022-12-18T15:18:31;0.90;68.10
38265;DHT22;24062;47.480;8.768;2022-12-18T15:22:25;0.80;68.00
38265;DHT22;24062;47.480;8.768;2022-12-18T15:26:26;0.80;68.40
38265;DHT22;24062;47.480;8.768;2022-12-18T15:30:28;0.70;68.70
38265;DHT22;24062;47.480;8.768;2022-12-18T15:34:21;0.70;68.80
38265;DHT22;24062;47.480;8.768;2022-12-18T15:38:13;0.70;69.00
38265;DHT22;24062;47.480;8.768;2022-12-18T15:42:13;0.70;68.70
38265;DHT22;24062;47.480;8.768;2022-12-18T15:46:24;0.60;68.60
38265;DHT22;24062;47.480;8.768;2022-12-18T15:50:16;0.60;69.30
38265;DHT22;24062;47.480;8.768;2022-12-18T15:54:09;0.50;68.90
38265;DHT22;24062;47.480;8.768;2022-12-18T15:58:11;0.50;69.60
38265;DHT22;24062;47.480;8.768;2022-12-18T16:02:07;0.60;69.30
38265;DHT22;24062;47.480;8.768;2022-12-18T16:06:04;0.60;69.30
38265;DHT22;24062;47.480;8.768;2022-12-18T16:09:56;0.40;69.20
38265;DHT22;24062;47.480;8.768;2022-12-18T16:13:56;0.20;69.40
38265;DHT22;24062;47.480;8.768;2022-12-18T16:17:49;0.10;69.60
38265;DHT22;24062;47.480;8.768;2022-12-18T16:21:41;0.00;69.90
38265;DHT22;24062;47.480;8.768;2022-12-18T16:25:33;-0.10;69.90
38265;DHT22;24062;47.480;8.768;2022-12-18T16:29:34;-0.10;70.30
38265;DHT22;24062;47.480;8.768;2022-12-18T16:33:27;0.00;70.60
38265;DHT22;24062;47.480;8.768;2022-12-18T16:37:19;0.00;70.60
38265;DHT22;24062;47.480;8.768;2022-12-18T16:41:15;0.10;70.60
38265;DHT22;24062;47.480;8.768;2022-12-18T16:45:32;0.10;70.20
38265;DHT22;24062;47.480;8.768;2022-12-18T16:49:25;-0.10;69.90
38265;DHT22;24062;47.480;8.768;2022-12-18T16:53:16;-0.20;70.10
38265;DHT22;24062;47.480;8.768;2022-12-18T16:57:08;-0.30;70.30
38265;DHT22;24062;47.480;8.768;2022-12-18T17:01:09;-0.30;70.70
38265;DHT22;24062;47.480;8.768;2022-12-18T17:05:02;-0.30;71.10
38265;DHT22;24062;47.480;8.768;2022-12-18T17:08:54;-0.30;71.10
38265;DHT22;24062;47.480;8.768;2022-12-18T17:12:45;-0.30;71.20
38265;DHT22;24062;47.480;8.768;2022-12-18T17:16:46;-0.20;71.90
38265;DHT22;24062;47.480;8.768;2022-12-18T17:20:38;-0.20;71.20
38265;DHT22;24062;47.480;8.768;2022-12-18T17:24:30;-0.40;71.00
38265;DHT22;24062;47.480;8.768;2022-12-18T17:28:21;-0.40;71.50
38265;DHT22;24062;47.480;8.768;2022-12-18T17:32:21;-0.40;72.50
38265;DHT22;24062;47.480;8.768;2022-12-18T17:36:14;-0.40;72.00
38265;DHT22;24062;47.480;8.768;2022-12-18T17:40:06;-0.40;72.30
38265;DHT22;24062;47.480;8.768;2022-12-18T17:43:58;-0.40;71.90
38265;DHT22;24062;47.480;8.768;2022-12-18T17:48:00;-0.50;72.10
38265;DHT22;24062;47.480;8.768;2022-12-18T17:51:53;-0.60;72.50
38265;DHT22;24062;47.480;8.768;2022-12-18T17:55:52;-0.70;72.20
38265;DHT22;24062;47.480;8.768;2022-12-18T17:59:43;-0.60;72.60
38265;DHT22;24062;47.480;8.768;2022-12-18T18:03:43;-0.50;73.00
38265;DHT22;24062;47.480;8.768;2022-12-18T18:07:36;-0.40;73.20
38265;DHT22;24062;47.480;8.768;2022-12-18T18:11:28;-0.40;72.80
38265;DHT22;24062;47.480;8.768;2022-12-18T18:15:38;-0.40;72.70
38265;DHT22;24062;47.480;8.768;2022-12-18T18:19:38;-0.50;72.80
38265;DHT22;24062;47.480;8.768;2022-12-18T18:23:32;-0.50;73.00
38265;DHT22;24062;47.480;8.768;2022-12-18T18:27:24;-0.60;73.10
38265;DHT22;24062;47.480;8.768;2022-12-18T18:31:15;-0.60;73.20
38265;DHT22;24062;47.480;8.768;2022-12-18T18:35:15;-0.60;73.20
38265;DHT22;24062;47.480;8.768;2022-12-18T18:39:08;-0.60;73.30
38265;DHT22;24062;47.480;8.768;2022-12-18T18:43:00;-0.70;73.60
38265;DHT22;24062;47.480;8.768;2022-12-18T18:46:52;-0.70;73.30
38265;DHT22;24062;47.480;8.768;2022-12-18T18:50:56;-0.80;73.30
38265;DHT22;24062;47.480;8.768;2022-12-18T18:54:49;-0.80;73.40
38265;DHT22;24062;47.480;8.768;2022-12-18T18:58:40;-0.90;73.80
38265;DHT22;24062;47.480;8.768;2022-12-18T19:02:32;-0.80;73.90
38265;DHT22;24062;47.480;8.768;2022-12-18T19:06:33;-0.70;73.90
38265;DHT22;24062;47.480;8.768;2022-12-18T19:10:26;-0.80;73.60
38265;DHT22;24062;47.480;8.768;2022-12-18T19:14:17;-0.80;74.00
38265;DHT22;24062;47.480;8.768;2022-12-18T19:18:09;-0.80;74.20
38265;DHT22;24062;47.480;8.768;2022-12-18T19:22:09;-0.60;75.30
38265;DHT22;24062;47.480;8.768;2022-12-18T19:26:02;-0.60;73.80
38265;DHT22;24062;47.480;8.768;2022-12-18T19:29:54;-0.70;74.20
38265;DHT22;24062;47.480;8.768;2022-12-18T19:33:45;-0.60;74.80
38265;DHT22;24062;47.480;8.768;2022-12-18T19:37:46;-0.40;75.20
38265;DHT22;24062;47.480;8.768;2022-12-18T19:41:39;-0.40;74.40
38265;DHT22;24062;47.480;8.768;2022-12-18T19:45:31;-0.30;74.30
38265;DHT22;24062;47.480;8.768;2022-12-18T19:49:22;-0.40;74.20
38265;DHT22;24062;47.480;8.768;2022-12-18T19:53:22;-0.50;73.80
38265;DHT22;24062;47.480;8.768;2022-12-18T19:57:15;-0.60;74.20
38265;DHT22;24062;47.480;8.768;2022-12-18T20:01:07;-0.50;74.50
38265;DHT22;24062;47.480;8.768;2022-12-18T20:04:58;-0.60;74.20
38265;DHT22;24062;47.480;8.768;2022-12-18T20:08:58;-0.60;74.80
38265;DHT22;24062;47.480;8.768;2022-12-18T20:12:51;-0.50;74.80
38265;DHT22;24062;47.480;8.768;2022-12-18T20:16:43;-0.60;74.30
38265;DHT22;24062;47.480;8.768;2022-12-18T20:20:34;-0.60;74.60
38265;DHT22;24062;47.480;8.768;2022-12-18T20:24:36;-0.50;75.40
38265;DHT22;24062;47.480;8.768;2022-12-18T20:28:29;-0.50;74.60
38265;DHT22;24062;47.480;8.768;2022-12-18T20:32:20;-0.60;75.00
38265;DHT22;24062;47.480;8.768;2022-12-18T20:36:13;-0.60;74.70
38265;DHT22;24062;47.480;8.768;2022-12-18T20:40:13;-0.70;74.80
38265;DHT22;24062;47.480;8.768;2022-12-18T20:44:06;-0.60;75.50
38265;DHT22;24062;47.480;8.768;2022-12-18T20:47:58;-0.60;75.40
38265;DHT22;24062;47.480;8.768;2022-12-18T20:51:50;-0.60;75.40
38265;DHT22;24062;47.480;8.768;2022-12-18T20:55:51;-0.50;75.60
38265;DHT22;24062;47.480;8.768;2022-12-18T20:59:43;-0.60;74.90
38265;DHT22;24062;47.480;8.768;2022-12-18T21:03:35;-0.60;74.80
38265;DHT22;24062;47.480;8.768;2022-12-18T21:07:26;-0.70;75.00
38265;DHT22;24062;47.480;8.768;2022-12-18T21:11:28;-0.60;75.40
38265;DHT22;24062;47.480;8.768;2022-12-18T21:15:38;-0.50;76.90
38265;DHT22;24062;47.480;8.768;2022-12-18T21:19:30;-0.40;75.90
38265;DHT22;24062;47.480;8.768;2022-12-18T21:23:21;-0.50;74.80
38265;DHT22;24062;47.480;8.768;2022-12-18T21:27:21;-0.60;75.00
38265;DHT22;24062;47.480;8.768;2022-12-18T21:31:14;-0.60;75.70
38265;DHT22;24062;47.480;8.768;2022-12-18T21:35:06;-0.40;76.70
38265;DHT22;24062;47.480;8.768;2022-12-18T21:38:57;-0.30;75.80
38265;DHT22;24062;47.480;8.768;2022-12-18T21:43:00;-0.30;76.50
38265;DHT22;24062;47.480;8.768;2022-12-18T21:47:16;-0.20;76.50
38265;DHT22;24062;47.480;8.768;2022-12-18T21:51:07;-0.30;75.10
38265;DHT22;24062;47.480;8.768;2022-12-18T21:54:59;-0.30;75.90
38265;DHT22;24062;47.480;8.768;2022-12-18T21:58:59;-0.50;75.00
38265;DHT22;24062;47.480;8.768;2022-12-18T22:02:52;-0.50;76.00
38265;DHT22;24062;47.480;8.768;2022-12-18T22:06:43;-0.40;78.00
38265;DHT22;24062;47.480;8.768;2022-12-18T22:10:35;-0.10;77.50
38265;DHT22;24062;47.480;8.768;2022-12-18T22:14:36;0.10;77.40
38265;DHT22;24062;47.480;8.768;2022-12-18T22:18:28;0.00;76.10
38265;DHT22;24062;47.480;8.768;2022-12-18T22:22:20;0.10;76.80
38265;DHT22;24062;47.480;8.768;2022-12-18T22:26:11;0.20;76.40
38265;DHT22;24062;47.480;8.768;2022-12-18T22:30:12;0.10;76.50
38265;DHT22;24062;47.480;8.768;2022-12-18T22:34:05;0.20;77.20
38265;DHT22;24062;47.480;8.768;2022-12-18T22:37:57;0.00;75.50
38265;DHT22;24062;47.480;8.768;2022-12-18T22:41:48;-0.10;74.90
38265;DHT22;24062;47.480;8.768;2022-12-18T22:45:48;-0.40;75.50
38265;DHT22;24062;47.480;8.768;2022-12-18T22:49:41;-0.40;76.80
38265;DHT22;24062;47.480;8.768;2022-12-18T22:53:32;-0.20;77.20
38265;DHT22;24062;47.480;8.768;2022-12-18T22:57:23;-0.10;77.00
38265;DHT22;24062;47.480;8.768;2022-12-18T23:01:26;-0.10;76.40
38265;DHT22;24062;47.480;8.768;2022-12-18T23:05:19;0.00;77.40
38265;DHT22;24062;47.480;8.768;2022-12-18T23:09:13;0.00;76.50
38265;DHT22;24062;47.480;8.768;2022-12-18T23:13:04;-0.20;76.50
38265;DHT22;24062;47.480;8.768;2022-12-18T23:17:04;0.00;77.30
38265;DHT22;24062;47.480;8.768;2022-12-18T23:20:57;-0.10;76.80
38265;DHT22;24062;47.480;8.768;2022-12-18T23:24:52;-0.10;76.90
38265;DHT22;24062;47.480;8.768;2022-12-18T23:28:44;-0.20;76.20
38265;DHT22;24062;47.480;8.768;2022-12-18T23:32:44;-0.20;76.50
38265;DHT22;24062;47.480;8.768;2022-12-18T23:36:37;-0.30;76.80
38265;DHT22;24062;47.480;8.768;2022-12-18T23:40:28;-0.20;76.90
38265;DHT22;24062;47.480;8.768;2022-12-18T23:44:19;-0.30;76.60
38265;DHT22;24062;47.480;8.768;2022-12-18T23:48:20;-0.20;76.90
38265;DHT22;24062;47.480;8.768;2022-12-18T23:52:12;-0.20;77.30
38265;DHT22;24062;47.480;8.768;2022-12-18T23:56:05;-0.10;77.00
38265;DHT22;24062;47.480;8.768;2022-12-18T23:59:57;-0.10;76.70
